Time;durP1;ratioP1;P1;durP2;ratioP2;P2;SDS_P1;SDS_P2;PMS_P1;PMS_P2;Temp;Humidity;BMP_temperature;BMP_pressure;BME280_temperature;BME280_humidity;BME280_pressure;Samples;Min_cycle;Max_cycle;Signal;HPM_P1;HPM_P2
2022/12/18 00:00:47;;;;;;;67.97;24.92;;;;;;;;;;4976893;28;20027;-76
2022/12/18 00:03:13;;;;;;;71.95;23.35;;;;;;;;;;4976855;28;20042;-76
2022/12/18 00:05:49;;;;;;;67.13;23.40;;;;;;;;;;4977030;28;20089;-76
2022/12/18 00:08:15;;;;;;;64.63;22.75;;;;;;;;;;4976606;28;20027;-76
2022/12/18 00:10:42;;;;;;;66.18;24.15;;;;;;;;;;4976859;28;20023;-76
2022/12/18 00:13:08;;;;;;;72.20;27.17;;;;;;;;;;4976678;28;20031;-76
2022/12/18 00:15:37;;;;;;;74.13;26.27;;;;;;;;;;4977202;28;20034;-76
2022/12/18 00:18:03;;;;;;;73.63;24.65;;;;;;;;;;4976641;28;20050;-76
2022/12/18 00:20:29;;;;;;;71.70;24.35;;;;;;;;;;4976590;28;20190;-76
2022/12/18 00:22:55;;;;;;;68.85;24.40;;;;;;;;;;4976415;28;20027;-76
2022/12/18 00:25:22;;;;;;;76.30;25.55;;;;;;;;;;4975851;28;20106;-76
2022/12/18 00:27:48;;;;;;;75.20;26.10;;;;;;;;;;4976326;28;20031;-76
2022/12/18 00:30:14;;;;;;;82.40;25.98;;;;;;;;;;4976318;28;20469;-76
2022/12/18 00:32:40;;;;;;;60.72;23.13;;;;;;;;;;4976196;28;20042;-76
2022/12/18 00:35:07;;;;;;;69.70;24.35;;;;;;;;;;4976394;28;20065;-76
2022/12/18 00:37:36;;;;;;;72.47;25.73;;;;;;;;;;4976213;28;20023;-76
2022/12/18 00:40:02;;;;;;;76.38;25.80;;;;;;;;;;4976061;28;20062;-76
2022/12/18 00:45:13;;;;;;;62.80;22.27;;;;;;;;;;4976230;28;20050;-75
2022/12/18 00:47:39;;;;;;;67.60;25.40;;;;;;;;;;4975907;28;20034;-76
2022/12/18 00:50:05;;;;;;;78.05;25.52;;;;;;;;;;4976033;28;20101;-76
2022/12/18 00:52:31;;;;;;;69.65;25.23;;;;;;;;;;4976005;28;20085;-76
2022/12/18 00:54:57;;;;;;;73.32;26.08;;;;;;;;;;4975875;28;20062;-76
2022/12/18 00:57:23;;;;;;;68.05;24.92;;;;;;;;;;4975625;28;20023;-76
2022/12/18 00:59:49;;;;;;;70.20;24.42;;;;;;;;;;4975869;28;20141;-76
2022/12/18 01:02:15;;;;;;;76.93;24.65;;;;;;;;;;4975865;28;20035;-76
2022/12/18 01:04:41;;;;;;;66.65;23.90;;;;;;;;;;4975605;28;20059;-76
2022/12/18 01:07:07;;;;;;;52.42;20.15;;;;;;;;;;4975746;28;20362;-76
2022/12/18 01:09:34;;;;;;;78.00;25.25;;;;;;;;;;4975619;28;20117;-76
2022/12/18 01:12:00;;;;;;;68.05;24.58;;;;;;;;;;4975898;28;20114;-76
2022/12/18 01:14:26;;;;;;;67.47;23.65;;;;;;;;;;4975618;28;20102;-76
2022/12/18 01:16:52;;;;;;;58.17;20.75;;;;;;;;;;4975583;28;20362;-76
2022/12/18 01:19:18;;;;;;;69.82;24.15;;;;;;;;;;4975698;28;20030;-76
2022/12/18 01:21:44;;;;;;;67.65;23.45;;;;;;;;;;4975591;28;20034;-76
2022/12/18 01:24:12;;;;;;;66.72;24.17;;;;;;;;;;4975334;28;20524;-76
2022/12/18 01:26:38;;;;;;;65.95;22.70;;;;;;;;;;4975327;28;20470;-76
2022/12/18 01:29:04;;;;;;;53.47;19.05;;;;;;;;;;4975270;28;20037;-76
2022/12/18 01:31:32;;;;;;;60.15;22.83;;;;;;;;;;4975458;28;20026;-76
2022/12/18 01:34:00;;;;;;;63.05;21.98;;;;;;;;;;4975266;28;20038;-76
2022/12/18 01:36:30;;;;;;;56.60;20.98;;;;;;;;;;4975263;28;20431;-76
2022/12/18 01:38:57;;;;;;;61.25;21.00;;;;;;;;;;4975415;28;20115;-76
2022/12/18 01:42:01;;;;;;;65.88;24.33;;;;;;;;;;4975489;28;20343;-76
2022/12/18 01:44:32;;;;;;;48.28;19.15;;;;;;;;;;4975234;28;20038;-76
2022/12/18 01:46:58;;;;;;;69.50;21.83;;;;;;;;;;4975069;28;20023;-76
2022/12/18 01:49:24;;;;;;;63.72;21.33;;;;;;;;;;4975258;28;20058;-76
2022/12/18 01:51:50;;;;;;;64.05;21.70;;;;;;;;;;4975059;28;20030;-76
2022/12/18 01:54:16;;;;;;;65.22;22.35;;;;;;;;;;4975034;28;20018;-76
2022/12/18 01:56:42;;;;;;;65.15;22.48;;;;;;;;;;4975006;28;20045;-76
2022/12/18 01:59:10;;;;;;;62.00;22.88;;;;;;;;;;4974598;28;20054;-76
2022/12/18 02:01:37;;;;;;;56.92;21.05;;;;;;;;;;4974924;28;20019;-76
2022/12/18 02:04:21;;;;;;;57.58;20.92;;;;;;;;;;4974831;28;20030;-76
2022/12/18 02:06:50;;;;;;;58.25;19.20;;;;;;;;;;4974888;28;20106;-76
2022/12/18 02:09:20;;;;;;;59.85;19.85;;;;;;;;;;4974719;28;20034;-76
2022/12/18 02:11:54;;;;;;;56.60;19.77;;;;;;;;;;4974899;28;20169;-76
2022/12/18 02:14:42;;;;;;;54.78;20.30;;;;;;;;;;4974844;28;20486;-76
2022/12/18 02:17:19;;;;;;;50.72;18.83;;;;;;;;;;4974969;28;20466;-76
2022/12/18 02:19:57;;;;;;;60.28;22.45;;;;;;;;;;4974666;28;20035;-76
2022/12/18 02:22:42;;;;;;;61.63;21.23;;;;;;;;;;4974808;28;20485;-76
2022/12/18 02:25:27;;;;;;;58.42;21.65;;;;;;;;;;4974736;28;20026;-76
2022/12/18 02:27:53;;;;;;;50.83;20.13;;;;;;;;;;4974843;28;20027;-76
2022/12/18 02:30:19;;;;;;;56.35;20.30;;;;;;;;;;4974789;28;20102;-76
2022/12/18 02:32:48;;;;;;;57.38;21.33;;;;;;;;;;4974588;28;20038;-76
2022/12/18 02:35:16;;;;;;;54.35;19.88;;;;;;;;;;4974625;28;20023;-76
2022/12/18 02:37:44;;;;;;;51.38;18.63;;;;;;;;;;4974667;28;20027;-76
2022/12/18 02:40:11;;;;;;;54.00;20.05;;;;;;;;;;4974249;28;20128;-76
2022/12/18 02:42:37;;;;;;;54.35;19.38;;;;;;;;;;4974576;28;20031;-76
2022/12/18 02:45:03;;;;;;;55.97;21.73;;;;;;;;;;4974510;28;20034;-76
2022/12/18 02:47:31;;;;;;;58.28;21.05;;;;;;;;;;4974984;28;20093;-76
2022/12/18 02:50:03;;;;;;;56.03;20.25;;;;;;;;;;4977795;28;20359;-76
2022/12/18 02:53:01;;;;;;;56.50;19.73;;;;;;;;;;4978261;28;20034;-76
2022/12/18 02:55:27;;;;;;;59.63;20.35;;;;;;;;;;4945957;28;20370;-76
2022/12/18 02:58:04;;;;;;;51.38;19.95;;;;;;;;;;4977944;28;20057;-76
2022/12/18 03:00:33;;;;;;;57.13;20.05;;;;;;;;;;4978041;28;20050;-76
2022/12/18 03:03:15;;;;;;;56.42;19.80;;;;;;;;;;4977988;28;20207;-76
2022/12/18 03:05:48;;;;;;;54.83;19.75;;;;;;;;;;4977964;28;20027;-76
2022/12/18 03:08:25;;;;;;;62.58;21.98;;;;;;;;;;4978193;28;20030;-76
2022/12/18 03:10:56;;;;;;;50.70;18.58;;;;;;;;;;4977772;28;20026;-76
2022/12/18 03:13:30;;;;;;;59.97;20.10;;;;;;;;;;4977763;28;20046;-76
2022/12/18 03:15:57;;;;;;;51.38;18.67;;;;;;;;;;4977823;28;20109;-76
2022/12/18 03:18:30;;;;;;;44.67;17.85;;;;;;;;;;4977494;28;20023;-76
2022/12/18 03:20:59;;;;;;;62.08;20.52;;;;;;;;;;4977688;28;20034;-76
2022/12/18 03:23:26;;;;;;;52.95;18.75;;;;;;;;;;4977711;28;20061;-76
2022/12/18 03:25:55;;;;;;;58.42;20.98;;;;;;;;;;4977422;28;20023;-76
2022/12/18 03:28:22;;;;;;;59.13;19.55;;;;;;;;;;4977491;28;20557;-76
2022/12/18 03:30:51;;;;;;;57.58;19.67;;;;;;;;;;4977425;28;20466;-76
2022/12/18 03:33:24;;;;;;;65.57;20.27;;;;;;;;;;4977592;28;20027;-76
2022/12/18 03:35:50;;;;;;;67.43;20.55;;;;;;;;;;4977432;28;20034;-77
2022/12/18 03:38:16;;;;;;;58.65;19.77;;;;;;;;;;4977381;28;20106;-76
2022/12/18 03:40:42;;;;;;;52.53;17.90;;;;;;;;;;4977184;28;20118;-76
2022/12/18 03:43:19;;;;;;;61.85;19.85;;;;;;;;;;4977441;28;20034;-76
2022/12/18 03:45:51;;;;;;;54.40;17.58;;;;;;;;;;4977613;28;20031;-76
2022/12/18 03:48:28;;;;;;;57.28;19.60;;;;;;;;;;4977374;28;20054;-76
2022/12/18 03:51:00;;;;;;;56.10;18.95;;;;;;;;;;4977024;28;20027;-76
2022/12/18 03:53:28;;;;;;;62.58;20.13;;;;;;;;;;4977194;28;20458;-76
2022/12/18 03:55:56;;;;;;;54.70;18.80;;;;;;;;;;4977010;28;20030;-76
2022/12/18 03:58:24;;;;;;;59.08;19.40;;;;;;;;;;4976806;28;20481;-76
2022/12/18 04:00:51;;;;;;;62.60;19.23;;;;;;;;;;4975955;28;20051;-76
2022/12/18 04:03:18;;;;;;;62.22;20.50;;;;;;;;;;4977127;28;20386;-76
2022/12/18 04:05:45;;;;;;;57.75;19.13;;;;;;;;;;4976904;28;20060;-76
2022/12/18 04:08:11;;;;;;;57.42;19.02;;;;;;;;;;4976716;28;20026;-77
2022/12/18 04:10:37;;;;;;;63.60;20.00;;;;;;;;;;4976940;28;20023;-76
2022/12/18 04:13:03;;;;;;;58.97;20.90;;;;;;;;;;4976704;28;20048;-76
2022/12/18 04:15:29;;;;;;;54.10;18.25;;;;;;;;;;4976853;28;20473;-76
2022/12/18 04:17:55;;;;;;;63.88;19.33;;;;;;;;;;4976684;28;20023;-76
2022/12/18 04:20:22;;;;;;;62.55;20.77;;;;;;;;;;4976299;28;20031;-76
2022/12/18 04:22:48;;;;;;;60.75;20.20;;;;;;;;;;4976550;28;20054;-76
2022/12/18 04:25:14;;;;;;;52.90;19.65;;;;;;;;;;4976758;28;20127;-76
2022/12/18 04:27:40;;;;;;;59.33;17.77;;;;;;;;;;4976438;28;20478;-77
2022/12/18 04:30:06;;;;;;;66.45;21.77;;;;;;;;;;4976509;28;20073;-77
2022/12/18 04:32:33;;;;;;;59.25;20.70;;;;;;;;;;4976196;28;20429;-77
2022/12/18 04:34:59;;;;;;;64.15;20.10;;;;;;;;;;4976416;28;20023;-76
2022/12/18 04:37:25;;;;;;;59.50;19.63;;;;;;;;;;4976381;28;20383;-76
2022/12/18 04:39:51;;;;;;;55.10;19.27;;;;;;;;;;4958836;28;20071;-76
2022/12/18 04:42:17;;;;;;;60.85;20.05;;;;;;;;;;4976138;28;20034;-76
2022/12/18 04:44:43;;;;;;;58.88;19.67;;;;;;;;;;4976235;28;20027;-76
2022/12/18 04:47:09;;;;;;;59.65;19.60;;;;;;;;;;4976067;28;20023;-76
2022/12/18 04:49:35;;;;;;;63.00;21.33;;;;;;;;;;4975861;28;20117;-76
2022/12/18 04:52:01;;;;;;;59.13;19.75;;;;;;;;;;4975881;28;20049;-76
2022/12/18 04:54:27;;;;;;;56.67;19.55;;;;;;;;;;4976053;28;20030;-76
2022/12/18 04:56:53;;;;;;;55.28;19.70;;;;;;;;;;4976111;28;20507;-76
2022/12/18 04:59:19;;;;;;;55.38;18.90;;;;;;;;;;4975737;28;20053;-76
2022/12/18 05:01:45;;;;;;;50.67;19.55;;;;;;;;;;4976184;28;20058;-76
2022/12/18 05:04:11;;;;;;;54.95;19.55;;;;;;;;;;4975843;28;20027;-76
2022/12/18 05:06:37;;;;;;;62.35;21.73;;;;;;;;;;4975770;28;20027;-76
2022/12/18 05:09:03;;;;;;;60.65;20.00;;;;;;;;;;4975674;28;20097;-76
2022/12/18 05:11:29;;;;;;;52.38;18.52;;;;;;;;;;4975562;28;20066;-76
2022/12/18 05:13:55;;;;;;;55.28;19.92;;;;;;;;;;4975729;28;20058;-76
2022/12/18 05:16:21;;;;;;;57.30;18.92;;;;;;;;;;4975712;28;20462;-76
2022/12/18 05:18:47;;;;;;;60.47;20.40;;;;;;;;;;4975536;28;20035;-76
2022/12/18 05:21:13;;;;;;;54.15;18.85;;;;;;;;;;4975537;28;20466;-76
2022/12/18 05:23:39;;;;;;;48.83;18.70;;;;;;;;;;4992175;28;20026;-76
2022/12/18 05:26:06;;;;;;;54.40;19.05;;;;;;;;;;4994997;28;20022;-76
2022/12/18 05:28:33;;;;;;;47.80;18.90;;;;;;;;;;4994870;28;20023;-76
2022/12/18 05:31:00;;;;;;;59.20;19.40;;;;;;;;;;4994833;28;20109;-76
2022/12/18 05:33:27;;;;;;;55.30;19.67;;;;;;;;;;4994651;28;20030;-76
2022/12/18 05:35:54;;;;;;;62.08;19.15;;;;;;;;;;4994726;28;20027;-76
2022/12/18 05:38:21;;;;;;;57.85;20.55;;;;;;;;;;4994553;28;20165;-76
2022/12/18 05:40:47;;;;;;;54.33;20.42;;;;;;;;;;4994621;28;20393;-76
2022/12/18 05:43:13;;;;;;;56.65;19.70;;;;;;;;;;4994687;28;20053;-76
2022/12/18 05:45:40;;;;;;;53.67;19.50;;;;;;;;;;4994666;28;20026;-76
2022/12/18 05:48:06;;;;;;;49.40;18.13;;;;;;;;;;4994481;28;20108;-76
2022/12/18 05:50:39;;;;;;;58.33;19.90;;;;;;;;;;4994463;28;20034;-76
2022/12/18 05:53:05;;;;;;;48.80;19.90;;;;;;;;;;4994382;28;20030;-76
2022/12/18 05:55:39;;;;;;;56.03;19.77;;;;;;;;;;4994541;28;20339;-76
2022/12/18 05:58:05;;;;;;;58.80;20.05;;;;;;;;;;4993898;28;20069;-76
2022/12/18 06:00:32;;;;;;;50.00;18.65;;;;;;;;;;4994249;28;20034;-76
2022/12/18 06:02:59;;;;;;;54.45;17.98;;;;;;;;;;4994351;28;20023;-76
2022/12/18 06:05:25;;;;;;;50.65;17.92;;;;;;;;;;4994114;28;20018;-76
2022/12/18 06:07:51;;;;;;;44.92;18.67;;;;;;;;;;4994410;28;20049;-76
2022/12/18 06:10:17;;;;;;;51.00;17.48;;;;;;;;;;4994252;28;20366;-76
2022/12/18 06:12:44;;;;;;;49.38;18.65;;;;;;;;;;4994385;28;20026;-76
2022/12/18 06:15:10;;;;;;;52.10;19.63;;;;;;;;;;4994191;28;20458;-76
2022/12/18 06:17:36;;;;;;;49.30;18.52;;;;;;;;;;4994247;28;20505;-76
2022/12/18 06:20:02;;;;;;;53.50;19.73;;;;;;;;;;4994188;28;20121;-76
2022/12/18 06:22:28;;;;;;;53.05;19.88;;;;;;;;;;4994306;28;20026;-76
2022/12/18 06:24:54;;;;;;;45.15;16.98;;;;;;;;;;4997575;28;20033;-76
2022/12/18 06:27:20;;;;;;;46.65;17.60;;;;;;;;;;4998080;28;20023;-76
2022/12/18 06:29:46;;;;;;;52.38;18.63;;;;;;;;;;4998023;28;20026;-76
2022/12/18 06:32:12;;;;;;;50.70;19.52;;;;;;;;;;4998168;28;20077;-76
2022/12/18 06:34:38;;;;;;;46.55;18.02;;;;;;;;;;4998090;28;20370;-76
2022/12/18 06:37:04;;;;;;;48.33;17.65;;;;;;;;;;4997907;28;20085;-76
2022/12/18 06:39:30;;;;;;;52.35;18.10;;;;;;;;;;4998080;28;20030;-76
2022/12/18 06:41:56;;;;;;;51.45;17.63;;;;;;;;;;4997751;28;20093;-76
2022/12/18 06:44:22;;;;;;;50.58;19.00;;;;;;;;;;4997872;28;20141;-76
2022/12/18 06:46:48;;;;;;;52.83;17.50;;;;;;;;;;4998015;28;20061;-76
2022/12/18 06:49:15;;;;;;;46.75;17.90;;;;;;;;;;4997574;28;20061;-76
2022/12/18 06:51:42;;;;;;;56.65;18.77;;;;;;;;;;4998027;28;20461;-76
2022/12/18 06:54:08;;;;;;;45.65;15.73;;;;;;;;;;4997578;28;20042;-76
2022/12/18 06:56:34;;;;;;;41.65;14.32;;;;;;;;;;4995368;28;20088;-77
2022/12/18 06:59:00;;;;;;;48.00;16.63;;;;;;;;;;5016699;28;20046;-77
2022/12/18 07:01:26;;;;;;;50.03;18.20;;;;;;;;;;5016666;28;20113;-76
2022/12/18 07:03:56;;;;;;;57.85;19.38;;;;;;;;;;4999459;28;20138;-76
2022/12/18 07:06:23;;;;;;;41.60;17.20;;;;;;;;;;5017109;28;20026;-76
2022/12/18 07:08:49;;;;;;;52.65;16.33;;;;;;;;;;5017131;28;20273;-76
2022/12/18 07:11:16;;;;;;;40.85;13.95;;;;;;;;;;5017019;28;20049;-76
2022/12/18 07:13:42;;;;;;;46.08;17.30;;;;;;;;;;5016946;28;20026;-76
2022/12/18 07:16:09;;;;;;;44.10;15.00;;;;;;;;;;5016849;28;20033;-76
2022/12/18 07:18:35;;;;;;;40.70;17.52;;;;;;;;;;5016806;28;20045;-76
2022/12/18 07:21:05;;;;;;;51.38;17.88;;;;;;;;;;5016820;28;20041;-76
2022/12/18 07:23:32;;;;;;;43.88;16.55;;;;;;;;;;5016893;28;20030;-76
2022/12/18 07:26:01;;;;;;;40.45;15.63;;;;;;;;;;5016703;28;20372;-76
2022/12/18 07:28:27;;;;;;;41.67;14.70;;;;;;;;;;5017030;28;20014;-77
2022/12/18 07:30:53;;;;;;;41.75;16.80;;;;;;;;;;5016561;28;20032;-77
2022/12/18 07:33:19;;;;;;;40.67;15.27;;;;;;;;;;5016634;28;20030;-76
2022/12/18 07:35:45;;;;;;;40.00;16.27;;;;;;;;;;5016368;28;20467;-77
2022/12/18 07:38:11;;;;;;;45.38;17.83;;;;;;;;;;5016560;28;20029;-77
2022/12/18 07:40:37;;;;;;;38.47;15.38;;;;;;;;;;5016413;28;20062;-77
2022/12/18 07:43:03;;;;;;;40.20;15.95;;;;;;;;;;5016602;28;20365;-77
2022/12/18 07:45:29;;;;;;;40.33;16.20;;;;;;;;;;5016490;28;20029;-77
2022/12/18 07:47:55;;;;;;;43.70;16.52;;;;;;;;;;5016340;28;20502;-77
2022/12/18 07:50:21;;;;;;;40.30;15.38;;;;;;;;;;5016191;28;20029;-77
2022/12/18 07:52:47;;;;;;;35.17;13.80;;;;;;;;;;5016697;28;20018;-77
2022/12/18 07:55:13;;;;;;;41.00;15.93;;;;;;;;;;5016332;28;20030;-77
2022/12/18 07:57:39;;;;;;;42.47;16.40;;;;;;;;;;5013241;28;21946;-77
2022/12/18 08:00:06;;;;;;;40.20;15.48;;;;;;;;;;4996978;28;20026;-77
2022/12/18 08:02:32;;;;;;;29.73;12.82;;;;;;;;;;4994648;28;20035;-77
2022/12/18 08:04:58;;;;;;;38.78;15.77;;;;;;;;;;4994876;28;20027;-78
2022/12/18 08:07:25;;;;;;;38.85;15.10;;;;;;;;;;4996737;28;20022;-78
2022/12/18 08:09:52;;;;;;;39.45;15.48;;;;;;;;;;4996861;28;20042;-78
2022/12/18 08:12:18;;;;;;;35.38;13.88;;;;;;;;;;4984353;28;20411;-78
2022/12/18 08:14:44;;;;;;;39.10;16.02;;;;;;;;;;4994585;28;20026;-78
2022/12/18 08:17:10;;;;;;;41.40;15.02;;;;;;;;;;4996395;28;20382;-78
2022/12/18 08:19:36;;;;;;;25.30;10.23;;;;;;;;;;4978846;28;20039;-78
2022/12/18 08:22:02;;;;;;;36.45;15.57;;;;;;;;;;4976723;28;20034;-78
2022/12/18 08:24:28;;;;;;;37.28;16.02;;;;;;;;;;4976533;28;20464;-78
2022/12/18 08:26:54;;;;;;;33.33;14.63;;;;;;;;;;4976912;28;20050;-78
2022/12/18 08:29:20;;;;;;;36.33;15.13;;;;;;;;;;4985636;28;20033;-77
2022/12/18 08:31:46;;;;;;;34.10;15.25;;;;;;;;;;4996422;28;20113;-78
2022/12/18 08:34:12;;;;;;;31.45;13.32;;;;;;;;;;4995923;28;20161;-77
2022/12/18 08:36:38;;;;;;;33.90;15.35;;;;;;;;;;4978268;28;20070;-77
2022/12/18 08:39:04;;;;;;;28.73;13.40;;;;;;;;;;4991014;28;20410;-77
2022/12/18 08:41:30;;;;;;;33.10;14.52;;;;;;;;;;4976180;28;20022;-77
2022/12/18 08:46:42;;;;;;;37.58;15.02;;;;;;;;;;4975525;28;20129;-77
2022/12/18 08:49:09;;;;;;;38.25;15.40;;;;;;;;;;4992810;28;20510;-77
2022/12/18 08:51:36;;;;;;;31.05;13.20;;;;;;;;;;4975666;28;20031;-77
2022/12/18 08:54:02;;;;;;;36.70;14.73;;;;;;;;;;4980327;28;20026;-77
2022/12/18 08:56:29;;;;;;;36.30;14.27;;;;;;;;;;4995462;28;20056;-77
2022/12/18 08:58:55;;;;;;;33.60;14.82;;;;;;;;;;4995331;28;20100;-78
2022/12/18 09:01:21;;;;;;;37.15;15.55;;;;;;;;;;4995334;28;20113;-77
2022/12/18 09:03:48;;;;;;;34.30;14.02;;;;;;;;;;4995309;28;20022;-77
2022/12/18 09:06:15;;;;;;;30.35;13.82;;;;;;;;;;4995420;28;20100;-77
2022/12/18 09:08:41;;;;;;;35.13;15.18;;;;;;;;;;4995422;28;20031;-77
2022/12/18 09:11:15;;;;;;;26.40;12.88;;;;;;;;;;4990164;28;20027;-77
2022/12/18 09:13:41;;;;;;;30.35;13.55;;;;;;;;;;4975853;28;20035;-77
2022/12/18 09:16:07;;;;;;;32.22;14.98;;;;;;;;;;4975529;28;20105;-77
2022/12/18 09:18:33;;;;;;;28.73;13.18;;;;;;;;;;4975436;28;20051;-76
2022/12/18 09:20:59;;;;;;;32.40;14.82;;;;;;;;;;4975558;28;20109;-76
2022/12/18 09:23:25;;;;;;;30.08;14.40;;;;;;;;;;4975440;28;20034;-76
2022/12/18 09:25:51;;;;;;;30.33;15.15;;;;;;;;;;4975473;28;20054;-76
2022/12/18 09:28:18;;;;;;;28.52;12.77;;;;;;;;;;4975258;28;20037;-76
2022/12/18 09:30:46;;;;;;;35.20;14.95;;;;;;;;;;4975341;28;20106;-76
2022/12/18 09:33:13;;;;;;;30.42;14.32;;;;;;;;;;4975182;28;20057;-76
2022/12/18 09:35:39;;;;;;;31.33;14.65;;;;;;;;;;4975504;28;20054;-76
2022/12/18 09:38:06;;;;;;;25.13;11.98;;;;;;;;;;4975317;28;20027;-76
2022/12/18 09:40:36;;;;;;;27.08;12.98;;;;;;;;;;4975106;28;20037;-76
2022/12/18 09:43:04;;;;;;;28.45;13.93;;;;;;;;;;4975140;28;20481;-76
2022/12/18 09:45:42;;;;;;;25.83;12.32;;;;;;;;;;4974924;28;20390;-76
2022/12/18 09:48:17;;;;;;;28.23;11.55;;;;;;;;;;4975009;28;20031;-76
2022/12/18 09:50:43;;;;;;;21.45;10.70;;;;;;;;;;4975052;28;20069;-76
2022/12/18 09:53:18;;;;;;;29.25;12.00;;;;;;;;;;4974961;28;20027;-76
2022/12/18 09:55:45;;;;;;;22.67;10.43;;;;;;;;;;4974789;28;20062;-76
2022/12/18 09:58:21;;;;;;;23.02;10.98;;;;;;;;;;4985591;28;20116;-76
2022/12/18 10:00:47;;;;;;;26.33;12.50;;;;;;;;;;4974895;28;20049;-76
2022/12/18 10:03:14;;;;;;;28.05;11.98;;;;;;;;;;4974778;28;20027;-75
2022/12/18 10:05:43;;;;;;;20.52;9.98;;;;;;;;;;5003519;28;20041;-76
2022/12/18 10:08:29;;;;;;;24.63;11.90;;;;;;;;;;4992652;28;20019;-75
2022/12/18 10:10:59;;;;;;;20.08;10.48;;;;;;;;;;4994222;28;20070;-76
2022/12/18 10:13:25;;;;;;;23.45;12.45;;;;;;;;;;4994181;28;20018;-76
2022/12/18 10:16:10;;;;;;;24.58;11.18;;;;;;;;;;4990407;28;20034;-76
2022/12/18 10:18:36;;;;;;;21.95;9.65;;;;;;;;;;4987786;28;20022;-76
2022/12/18 10:21:10;;;;;;;25.65;12.15;;;;;;;;;;4976995;28;20037;-76
2022/12/18 10:23:39;;;;;;;24.90;12.45;;;;;;;;;;4995406;28;20033;-76
2022/12/18 10:26:06;;;;;;;25.10;11.35;;;;;;;;;;5005455;28;20045;-76
2022/12/18 10:28:34;;;;;;;22.98;11.40;;;;;;;;;;4993827;28;20373;-76
2022/12/18 10:31:00;;;;;;;21.77;10.82;;;;;;;;;;4994005;28;20033;-76
2022/12/18 10:33:29;;;;;;;20.33;9.85;;;;;;;;;;4993896;28;20026;-76
2022/12/18 10:35:55;;;;;;;16.40;9.73;;;;;;;;;;4994159;28;20027;-76
2022/12/18 10:38:31;;;;;;;24.75;10.68;;;;;;;;;;4993891;28;20249;-76
2022/12/18 10:41:05;;;;;;;23.10;11.40;;;;;;;;;;4993718;28;20106;-76
2022/12/18 10:43:35;;;;;;;20.33;10.25;;;;;;;;;;4993722;28;20413;-76
2022/12/18 10:46:10;;;;;;;22.70;10.90;;;;;;;;;;4993920;28;20022;-76
2022/12/18 10:48:40;;;;;;;20.73;10.38;;;;;;;;;;4993813;28;20030;-76
2022/12/18 10:51:06;;;;;;;17.67;8.30;;;;;;;;;;4993838;28;20032;-76
2022/12/18 10:53:34;;;;;;;21.80;10.25;;;;;;;;;;4993560;28;20327;-76
2022/12/18 10:56:00;;;;;;;18.05;9.50;;;;;;;;;;4993852;28;20085;-76
2022/12/18 10:58:32;;;;;;;16.67;8.10;;;;;;;;;;4993411;28;20058;-76
2022/12/18 11:01:17;;;;;;;22.27;9.48;;;;;;;;;;4994031;28;20466;-76
2022/12/18 11:03:44;;;;;;;18.75;8.75;;;;;;;;;;4993678;28;20033;-76
2022/12/18 11:06:14;;;;;;;24.48;10.95;;;;;;;;;;4993801;28;20026;-76
2022/12/18 11:08:41;;;;;;;19.05;9.60;;;;;;;;;;4993488;28;20027;-76
2022/12/18 11:11:21;;;;;;;19.40;9.77;;;;;;;;;;4974712;28;20034;-76
2022/12/18 11:14:02;;;;;;;11.75;7.00;;;;;;;;;;4977692;28;20026;-76
2022/12/18 11:16:30;;;;;;;15.45;8.32;;;;;;;;;;4983012;28;20401;-76
2022/12/18 11:19:09;;;;;;;17.10;7.30;;;;;;;;;;4995072;28;20050;-75
2022/12/18 11:21:40;;;;;;;15.00;8.07;;;;;;;;;;4983387;28;20097;-76
2022/12/18 11:24:15;;;;;;;23.05;8.77;;;;;;;;;;4991950;28;20081;-76
2022/12/18 11:26:43;;;;;;;10.13;5.90;;;;;;;;;;4977512;28;20035;-76
2022/12/18 11:29:10;;;;;;;14.30;7.57;;;;;;;;;;4977831;28;20118;-76
2022/12/18 11:31:37;;;;;;;13.00;7.05;;;;;;;;;;4977581;28;20030;-76
2022/12/18 11:34:11;;;;;;;12.25;7.30;;;;;;;;;;4977384;28;20029;-76
2022/12/18 11:36:46;;;;;;;15.77;8.48;;;;;;;;;;4977403;28;20351;-76
2022/12/18 11:39:26;;;;;;;14.27;7.40;;;;;;;;;;4977238;28;20085;-76
2022/12/18 11:42:10;;;;;;;15.15;7.65;;;;;;;;;;4959857;28;20109;-76
2022/12/18 11:44:39;;;;;;;16.33;7.82;;;;;;;;;;4977977;28;20019;-76
2022/12/18 11:47:25;;;;;;;12.77;6.90;;;;;;;;;;4988823;28;20094;-75
2022/12/18 11:49:51;;;;;;;14.65;6.32;;;;;;;;;;4977459;28;20031;-76
2022/12/18 11:52:20;;;;;;;16.58;8.18;;;;;;;;;;4977088;28;20467;-76
2022/12/18 11:54:46;;;;;;;10.73;6.70;;;;;;;;;;4976879;28;20089;-76
2022/12/18 11:57:27;;;;;;;12.30;6.97;;;;;;;;;;4977033;28;20417;-76
2022/12/18 12:00:01;;;;;;;16.15;8.48;;;;;;;;;;4977098;28;20039;-76
2022/12/18 12:02:36;;;;;;;13.70;7.30;;;;;;;;;;4990839;28;20031;-75
2022/12/18 12:05:21;;;;;;;14.68;7.57;;;;;;;;;;4996490;28;20026;-76
2022/12/18 12:07:47;;;;;;;13.98;7.20;;;;;;;;;;4996433;28;20378;-76
2022/12/18 12:10:31;;;;;;;12.30;5.82;;;;;;;;;;4996182;28;20559;-76
2022/12/18 12:12:57;;;;;;;8.77;5.50;;;;;;;;;;4976844;28;20050;-76
2022/12/18 12:15:42;;;;;;;12.82;6.80;;;;;;;;;;4976757;28;20117;-75
2022/12/18 12:18:08;;;;;;;9.60;6.43;;;;;;;;;;4976629;28;20027;-76
2022/12/18 12:20:45;;;;;;;13.93;7.70;;;;;;;;;;4976058;28;20027;-76
2022/12/18 12:23:20;;;;;;;13.20;6.05;;;;;;;;;;4976577;28;20031;-76
2022/12/18 12:25:49;;;;;;;12.60;6.88;;;;;;;;;;4982820;28;20033;-75
2022/12/18 12:28:27;;;;;;;10.65;5.72;;;;;;;;;;4995621;28;20041;-75
2022/12/18 12:31:12;;;;;;;14.40;7.05;;;;;;;;;;4990658;28;20113;-76
2022/12/18 12:33:50;;;;;;;12.07;6.97;;;;;;;;;;4985232;28;20050;-76
2022/12/18 12:36:16;;;;;;;10.00;5.45;;;;;;;;;;4996492;28;20029;-76
2022/12/18 12:38:45;;;;;;;13.30;7.40;;;;;;;;;;5001378;28;20404;-76
2022/12/18 12:43:12;;;;;;;9.85;6.55;;;;;;;;;;4993240;28;20438;-76
2022/12/18 12:44:02;;;;;;;15.40;7.70;;;;;;;;;;4992577;28;20035;-76
2022/12/18 12:46:28;;;;;;;12.73;7.07;;;;;;;;;;4988293;28;20026;-76
2022/12/18 12:48:58;;;;;;;16.08;8.05;;;;;;;;;;4995395;28;20554;-76
2022/12/18 12:51:26;;;;;;;13.85;8.18;;;;;;;;;;5007705;28;20080;-76
2022/12/18 12:53:53;;;;;;;13.68;6.75;;;;;;;;;;4995223;28;20031;-76
2022/12/18 12:56:21;;;;;;;14.23;7.75;;;;;;;;;;4988039;28;20022;-76
2022/12/18 12:58:57;;;;;;;15.68;7.38;;;;;;;;;;4977391;28;20197;-75
2022/12/18 13:01:31;;;;;;;12.95;7.15;;;;;;;;;;4995104;28;20092;-75
2022/12/18 13:04:06;;;;;;;10.63;6.15;;;;;;;;;;4995192;28;20022;-76
2022/12/18 13:06:46;;;;;;;14.75;8.25;;;;;;;;;;4993860;28;20033;-76
2022/12/18 13:09:12;;;;;;;13.88;7.28;;;;;;;;;;4982930;28;20442;-76
2022/12/18 13:14:32;;;;;;;13.10;6.50;;;;;;;;;;4993644;28;20084;-75
2022/12/18 13:17:18;;;;;;;11.40;6.45;;;;;;;;;;4994167;28;20073;-75
2022/12/18 13:19:44;;;;;;;11.85;7.07;;;;;;;;;;4994367;28;20034;-76
2022/12/18 13:22:29;;;;;;;11.82;6.35;;;;;;;;;;4994586;28;20469;-76
2022/12/18 13:24:55;;;;;;;12.85;6.80;;;;;;;;;;4994925;28;20035;-76
2022/12/18 13:27:40;;;;;;;12.35;7.95;;;;;;;;;;4993705;28;20031;-76
2022/12/18 13:30:26;;;;;;;12.85;7.15;;;;;;;;;;4980188;28;20030;-77
2022/12/18 13:33:12;;;;;;;11.75;6.93;;;;;;;;;;4964610;28;20046;-76
2022/12/18 13:35:39;;;;;;;12.90;6.72;;;;;;;;;;4962978;28;20027;-76
2022/12/18 13:38:20;;;;;;;12.65;7.07;;;;;;;;;;4994981;28;20028;-76
2022/12/18 13:40:46;;;;;;;12.02;6.85;;;;;;;;;;4993071;28;20125;-76
2022/12/18 13:43:21;;;;;;;12.02;6.47;;;;;;;;;;4985774;28;20030;-76
2022/12/18 13:46:06;;;;;;;14.35;6.78;;;;;;;;;;4990444;28;20054;-76
2022/12/18 13:48:33;;;;;;;10.90;6.60;;;;;;;;;;4994332;28;20033;-76
2022/12/18 13:51:01;;;;;;;9.30;6.70;;;;;;;;;;4978028;28;20101;-76
2022/12/18 13:53:30;;;;;;;13.98;6.93;;;;;;;;;;4985326;28;21584;-76
2022/12/18 13:55:56;;;;;;;11.75;6.75;;;;;;;;;;4994530;28;20026;-75
2022/12/18 13:58:22;;;;;;;11.52;5.85;;;;;;;;;;4993993;28;20107;-76
2022/12/18 14:00:48;;;;;;;11.27;6.63;;;;;;;;;;4994174;28;20130;-76
2022/12/18 14:03:19;;;;;;;13.00;6.82;;;;;;;;;;4993621;28;20458;-76
2022/12/18 14:05:46;;;;;;;;;;;;;;;;;;4975142;28;20336;-76
2022/12/18 14:08:14;;;;;;;11.80;6.32;;;;;;;;;;4974575;28;20019;-76
2022/12/18 14:10:41;;;;;;;10.00;6.20;;;;;;;;;;4956809;28;20027;-76
2022/12/18 14:13:08;;;;;;;9.48;6.00;;;;;;;;;;4974254;28;20026;-76
2022/12/18 14:15:52;;;;;;;11.43;6.53;;;;;;;;;;4974347;28;20466;-76
2022/12/18 14:18:23;;;;;;;12.40;6.60;;;;;;;;;;4973754;28;20102;-76
2022/12/18 14:20:51;;;;;;;11.50;6.82;;;;;;;;;;4973365;28;20046;-75
2022/12/18 14:23:35;;;;;;;12.77;6.53;;;;;;;;;;4973644;28;20039;-76
2022/12/18 14:26:02;;;;;;;14.85;7.40;;;;;;;;;;4973423;28;20027;-75
2022/12/18 14:28:28;;;;;;;12.43;6.47;;;;;;;;;;4973473;28;20134;-76
2022/12/18 14:30:55;;;;;;;12.82;7.80;;;;;;;;;;4973485;28;20058;-76
2022/12/18 14:33:25;;;;;;;14.10;7.05;;;;;;;;;;4974315;28;20106;-76
2022/12/18 14:36:00;;;;;;;14.38;7.10;;;;;;;;;;4989420;28;20019;-76
2022/12/18 14:38:26;;;;;;;10.98;6.28;;;;;;;;;;4994215;28;20069;-76
2022/12/18 14:40:53;;;;;;;13.77;7.75;;;;;;;;;;4993736;28;20062;-75